Canyon Creek, Idaho
Current Conditions -  °F | °C
As of 6:53 PM on Friday 24 Oct 2014 (Local Time) from KRXE Reporting Station
Clear Clear  
Wind Chill: 59°   Ceiling: Unl
Heat Index: 59°   Visibility: 10mi
Dew Point: 30°   Wind: 6mph
Humidity: 33%   Direction: 170°S
Pressure: 30.09"   Gusts: NA
Location:  43.8021°N, 111.594°W
Report Text: KRXE 250053Z AUTO 17005KT 10SM CLR 15/M01 A3009 RMK AO2 SLP167 T01501011
Loading
Personal Weather Stations






























Interactive Weather Map
Tropical Storm Tracking
New forecast layout! Learn more

10-Day Weather Forecast

Advertisements
Track Severe Weather on mobile